sensor_id;sensor_type;location;lat;lon;timestamp;P1;durP1;ratioP1;P2;durP2;ratioP2
23258;SDS011;11798;51.528;7.240;2023-07-22T00:00:59;18.40;;;12.40;;
23258;SDS011;11798;51.528;7.240;2023-07-22T00:03:25;15.03;;;11.80;;
23258;SDS011;11798;51.528;7.240;2023-07-22T00:06:01;17.77;;;12.60;;
23258;SDS011;11798;51.528;7.240;2023-07-22T00:08:28;17.73;;;11.97;;
23258;SDS011;11798;51.528;7.240;2023-07-22T00:10:53;14.67;;;11.23;;
23258;SDS011;11798;51.528;7.240;2023-07-22T00:13:19;18.40;;;11.47;;
23258;SDS011;11798;51.528;7.240;2023-07-22T00:15:45;16.97;;;13.20;;
23258;SDS011;11798;51.528;7.240;2023-07-22T00:18:10;17.67;;;11.47;;
23258;SDS011;11798;51.528;7.240;2023-07-22T00:20:36;16.80;;;12.40;;
23258;SDS011;11798;51.528;7.240;2023-07-22T00:23:01;16.30;;;11.93;;
23258;SDS011;11798;51.528;7.240;2023-07-22T00:25:27;15.23;;;12.10;;
23258;SDS011;11798;51.528;7.240;2023-07-22T00:27:52;19.07;;;13.50;;
23258;SDS011;11798;51.528;7.240;2023-07-22T00:30:18;16.87;;;11.63;;
23258;SDS011;11798;51.528;7.240;2023-07-22T00:32:43;16.37;;;11.67;;
23258;SDS011;11798;51.528;7.240;2023-07-22T00:35:09;14.73;;;10.67;;
23258;SDS011;11798;51.528;7.240;2023-07-22T00:37:35;17.77;;;11.63;;
23258;SDS011;11798;51.528;7.240;2023-07-22T00:40:01;15.30;;;11.73;;
23258;SDS011;11798;51.528;7.240;2023-07-22T00:42:30;18.77;;;11.60;;
23258;SDS011;11798;51.528;7.240;2023-07-22T00:44:56;16.13;;;12.07;;
23258;SDS011;11798;51.528;7.240;2023-07-22T00:47:22;15.53;;;11.30;;
23258;SDS011;11798;51.528;7.240;2023-07-22T00:49:48;14.47;;;10.87;;
23258;SDS011;11798;51.528;7.240;2023-07-22T00:52:14;15.33;;;11.70;;
23258;SDS011;11798;51.528;7.240;2023-07-22T00:54:41;14.27;;;10.87;;
23258;SDS011;11798;51.528;7.240;2023-07-22T00:57:07;16.90;;;11.53;;
23258;SDS011;11798;51.528;7.240;2023-07-22T00:59:33;14.77;;;11.07;;
23258;SDS011;11798;51.528;7.240;2023-07-22T01:01:59;16.10;;;11.97;;
23258;SDS011;11798;51.528;7.240;2023-07-22T01:04:25;16.87;;;11.30;;
23258;SDS011;11798;51.528;7.240;2023-07-22T01:06:51;15.87;;;11.43;;
23258;SDS011;11798;51.528;7.240;2023-07-22T01:09:20;17.00;;;11.60;;
23258;SDS011;11798;51.528;7.240;2023-07-22T01:11:45;14.97;;;11.60;;
23258;SDS011;11798;51.528;7.240;2023-07-22T01:14:11;17.00;;;10.83;;
23258;SDS011;11798;51.528;7.240;2023-07-22T01:16:36;16.10;;;11.67;;
23258;SDS011;11798;51.528;7.240;2023-07-22T01:19:02;16.10;;;11.20;;
23258;SDS011;11798;51.528;7.240;2023-07-22T01:21:29;16.87;;;11.20;;
23258;SDS011;11798;51.528;7.240;2023-07-22T01:23:57;14.20;;;10.70;;
23258;SDS011;11798;51.528;7.240;2023-07-22T01:26:23;13.17;;;10.60;;
23258;SDS011;11798;51.528;7.240;2023-07-22T01:28:49;14.43;;;10.90;;
23258;SDS011;11798;51.528;7.240;2023-07-22T01:31:14;16.00;;;10.17;;
23258;SDS011;11798;51.528;7.240;2023-07-22T01:33:40;15.97;;;10.50;;
23258;SDS011;11798;51.528;7.240;2023-07-22T01:36:06;15.37;;;10.53;;
23258;SDS011;11798;51.528;7.240;2023-07-22T01:38:32;14.43;;;11.03;;
23258;SDS011;11798;51.528;7.240;2023-07-22T01:40:58;15.90;;;10.90;;
23258;SDS011;11798;51.528;7.240;2023-07-22T01:43:24;14.23;;;10.10;;
23258;SDS011;11798;51.528;7.240;2023-07-22T01:45:49;13.53;;;10.53;;
23258;SDS011;11798;51.528;7.240;2023-07-22T01:48:15;13.17;;;10.57;;
23258;SDS011;11798;51.528;7.240;2023-07-22T01:50:41;16.27;;;10.63;;
23258;SDS011;11798;51.528;7.240;2023-07-22T01:53:06;13.70;;;10.63;;
23258;SDS011;11798;51.528;7.240;2023-07-22T01:55:32;15.13;;;10.27;;
23258;SDS011;11798;51.528;7.240;2023-07-22T01:57:58;13.50;;;10.30;;
23258;SDS011;11798;51.528;7.240;2023-07-22T02:00:24;14.53;;;10.00;;
23258;SDS011;11798;51.528;7.240;2023-07-22T02:02:49;11.63;;;8.93;;
23258;SDS011;11798;51.528;7.240;2023-07-22T02:05:15;11.87;;;9.23;;
23258;SDS011;11798;51.528;7.240;2023-07-22T02:07:41;14.07;;;9.87;;
23258;SDS011;11798;51.528;7.240;2023-07-22T02:10:07;14.67;;;10.00;;
23258;SDS011;11798;51.528;7.240;2023-07-22T02:12:33;14.33;;;9.87;;
23258;SDS011;11798;51.528;7.240;2023-07-22T02:14:59;13.97;;;9.63;;
23258;SDS011;11798;51.528;7.240;2023-07-22T02:17:24;14.13;;;9.87;;
23258;SDS011;11798;51.528;7.240;2023-07-22T02:19:50;13.07;;;10.17;;
23258;SDS011;11798;51.528;7.240;2023-07-22T02:22:15;11.93;;;9.23;;
23258;SDS011;11798;51.528;7.240;2023-07-22T02:24:41;13.63;;;9.70;;
23258;SDS011;11798;51.528;7.240;2023-07-22T02:27:07;13.97;;;10.37;;
23258;SDS011;11798;51.528;7.240;2023-07-22T02:29:35;15.97;;;9.87;;
23258;SDS011;11798;51.528;7.240;2023-07-22T02:32:01;13.20;;;9.57;;
23258;SDS011;11798;51.528;7.240;2023-07-22T02:34:28;13.77;;;9.57;;
23258;SDS011;11798;51.528;7.240;2023-07-22T02:36:54;12.00;;;8.97;;
23258;SDS011;11798;51.528;7.240;2023-07-22T02:39:19;12.87;;;9.70;;
23258;SDS011;11798;51.528;7.240;2023-07-22T02:41:45;14.70;;;9.83;;
23258;SDS011;11798;51.528;7.240;2023-07-22T02:44:10;12.70;;;9.57;;
23258;SDS011;11798;51.528;7.240;2023-07-22T02:46:37;12.20;;;9.53;;
23258;SDS011;11798;51.528;7.240;2023-07-22T02:49:03;16.03;;;10.10;;
23258;SDS011;11798;51.528;7.240;2023-07-22T02:51:28;13.97;;;10.10;;
23258;SDS011;11798;51.528;7.240;2023-07-22T02:53:54;13.03;;;10.27;;
23258;SDS011;11798;51.528;7.240;2023-07-22T02:56:19;17.03;;;10.20;;
23258;SDS011;11798;51.528;7.240;2023-07-22T02:58:45;16.47;;;10.50;;
23258;SDS011;11798;51.528;7.240;2023-07-22T03:01:11;12.90;;;9.40;;
23258;SDS011;11798;51.528;7.240;2023-07-22T03:03:36;13.33;;;9.73;;
23258;SDS011;11798;51.528;7.240;2023-07-22T03:06:02;14.27;;;9.63;;
23258;SDS011;11798;51.528;7.240;2023-07-22T03:08:32;12.07;;;9.63;;
23258;SDS011;11798;51.528;7.240;2023-07-22T03:10:57;13.50;;;9.60;;
23258;SDS011;11798;51.528;7.240;2023-07-22T03:13:23;12.33;;;9.20;;
23258;SDS011;11798;51.528;7.240;2023-07-22T03:15:48;14.37;;;9.43;;
23258;SDS011;11798;51.528;7.240;2023-07-22T03:18:14;16.27;;;10.77;;
23258;SDS011;11798;51.528;7.240;2023-07-22T03:20:40;16.53;;;10.53;;
23258;SDS011;11798;51.528;7.240;2023-07-22T03:23:06;13.17;;;9.20;;
23258;SDS011;11798;51.528;7.240;2023-07-22T03:25:32;12.77;;;9.67;;
23258;SDS011;11798;51.528;7.240;2023-07-22T03:28:02;18.60;;;9.83;;
23258;SDS011;11798;51.528;7.240;2023-07-22T03:30:30;14.97;;;10.30;;
23258;SDS011;11798;51.528;7.240;2023-07-22T03:32:55;13.33;;;10.10;;
23258;SDS011;11798;51.528;7.240;2023-07-22T03:35:21;12.33;;;9.57;;
23258;SDS011;11798;51.528;7.240;2023-07-22T03:37:47;14.33;;;10.57;;
23258;SDS011;11798;51.528;7.240;2023-07-22T03:40:12;12.67;;;10.10;;
23258;SDS011;11798;51.528;7.240;2023-07-22T03:42:52;12.80;;;10.10;;
23258;SDS011;11798;51.528;7.240;2023-07-22T03:45:19;14.93;;;9.43;;
23258;SDS011;11798;51.528;7.240;2023-07-22T03:47:46;12.43;;;9.43;;
23258;SDS011;11798;51.528;7.240;2023-07-22T03:50:16;17.57;;;10.83;;
23258;SDS011;11798;51.528;7.240;2023-07-22T03:52:42;12.20;;;9.33;;
23258;SDS011;11798;51.528;7.240;2023-07-22T03:55:07;14.80;;;9.97;;
23258;SDS011;11798;51.528;7.240;2023-07-22T03:57:33;14.40;;;9.80;;
23258;SDS011;11798;51.528;7.240;2023-07-22T03:59:59;13.20;;;9.57;;
23258;SDS011;11798;51.528;7.240;2023-07-22T04:02:25;12.93;;;9.53;;
23258;SDS011;11798;51.528;7.240;2023-07-22T04:04:52;15.67;;;9.87;;
23258;SDS011;11798;51.528;7.240;2023-07-22T04:07:19;13.90;;;9.50;;
23258;SDS011;11798;51.528;7.240;2023-07-22T04:09:45;12.93;;;8.43;;
23258;SDS011;11798;51.528;7.240;2023-07-22T04:12:10;13.60;;;9.00;;
23258;SDS011;11798;51.528;7.240;2023-07-22T04:14:36;13.43;;;9.20;;
23258;SDS011;11798;51.528;7.240;2023-07-22T04:17:02;11.93;;;9.70;;
23258;SDS011;11798;51.528;7.240;2023-07-22T04:19:29;12.63;;;9.07;;
23258;SDS011;11798;51.528;7.240;2023-07-22T04:21:54;14.03;;;9.67;;
23258;SDS011;11798;51.528;7.240;2023-07-22T04:24:20;11.30;;;8.63;;
23258;SDS011;11798;51.528;7.240;2023-07-22T04:26:46;12.33;;;8.73;;
23258;SDS011;11798;51.528;7.240;2023-07-22T04:29:11;14.70;;;8.27;;
23258;SDS011;11798;51.528;7.240;2023-07-22T04:31:37;11.40;;;8.80;;
23258;SDS011;11798;51.528;7.240;2023-07-22T04:34:03;12.50;;;8.97;;
23258;SDS011;11798;51.528;7.240;2023-07-22T04:36:30;11.77;;;8.97;;
23258;SDS011;11798;51.528;7.240;2023-07-22T04:38:56;12.13;;;8.60;;
23258;SDS011;11798;51.528;7.240;2023-07-22T04:41:22;11.60;;;9.63;;
23258;SDS011;11798;51.528;7.240;2023-07-22T04:43:47;11.63;;;8.67;;
23258;SDS011;11798;51.528;7.240;2023-07-22T04:46:13;13.27;;;8.50;;
23258;SDS011;11798;51.528;7.240;2023-07-22T04:48:38;10.73;;;8.37;;
23258;SDS011;11798;51.528;7.240;2023-07-22T04:51:04;11.07;;;8.40;;
23258;SDS011;11798;51.528;7.240;2023-07-22T04:53:29;11.33;;;8.57;;
23258;SDS011;11798;51.528;7.240;2023-07-22T04:55:55;10.60;;;8.13;;
23258;SDS011;11798;51.528;7.240;2023-07-22T04:58:21;11.00;;;7.47;;
23258;SDS011;11798;51.528;7.240;2023-07-22T05:00:47;12.40;;;8.20;;
23258;SDS011;11798;51.528;7.240;2023-07-22T05:03:13;14.33;;;8.47;;
23258;SDS011;11798;51.528;7.240;2023-07-22T05:05:39;11.23;;;8.67;;
23258;SDS011;11798;51.528;7.240;2023-07-22T05:08:05;11.33;;;8.63;;
23258;SDS011;11798;51.528;7.240;2023-07-22T05:10:32;10.73;;;8.27;;
23258;SDS011;11798;51.528;7.240;2023-07-22T05:12:58;12.60;;;9.33;;
23258;SDS011;11798;51.528;7.240;2023-07-22T05:15:23;10.50;;;8.43;;
23258;SDS011;11798;51.528;7.240;2023-07-22T05:17:49;9.77;;;7.83;;
23258;SDS011;11798;51.528;7.240;2023-07-22T05:20:15;15.00;;;8.27;;
23258;SDS011;11798;51.528;7.240;2023-07-22T05:22:40;12.47;;;8.23;;
23258;SDS011;11798;51.528;7.240;2023-07-22T05:25:07;13.87;;;8.30;;
23258;SDS011;11798;51.528;7.240;2023-07-22T05:27:34;12.57;;;8.63;;
23258;SDS011;11798;51.528;7.240;2023-07-22T05:30:00;12.70;;;8.20;;
23258;SDS011;11798;51.528;7.240;2023-07-22T05:32:28;12.47;;;8.57;;
23258;SDS011;11798;51.528;7.240;2023-07-22T05:34:54;13.00;;;7.90;;
23258;SDS011;11798;51.528;7.240;2023-07-22T05:37:21;11.50;;;7.60;;
23258;SDS011;11798;51.528;7.240;2023-07-22T05:39:47;12.20;;;7.63;;
23258;SDS011;11798;51.528;7.240;2023-07-22T05:42:12;11.70;;;7.70;;
23258;SDS011;11798;51.528;7.240;2023-07-22T05:44:38;12.20;;;8.33;;
23258;SDS011;11798;51.528;7.240;2023-07-22T05:47:04;12.13;;;8.30;;
23258;SDS011;11798;51.528;7.240;2023-07-22T05:49:29;14.20;;;8.37;;
23258;SDS011;11798;51.528;7.240;2023-07-22T05:51:55;10.43;;;8.57;;
23258;SDS011;11798;51.528;7.240;2023-07-22T05:54:21;8.63;;;7.43;;
23258;SDS011;11798;51.528;7.240;2023-07-22T05:56:46;11.87;;;7.70;;
23258;SDS011;11798;51.528;7.240;2023-07-22T05:59:12;11.60;;;8.07;;
23258;SDS011;11798;51.528;7.240;2023-07-22T06:01:37;11.90;;;7.90;;
23258;SDS011;11798;51.528;7.240;2023-07-22T06:04:03;9.17;;;7.20;;
23258;SDS011;11798;51.528;7.240;2023-07-22T06:06:29;10.87;;;7.70;;
23258;SDS011;11798;51.528;7.240;2023-07-22T06:08:55;12.83;;;7.93;;
23258;SDS011;11798;51.528;7.240;2023-07-22T06:11:21;13.77;;;8.03;;
23258;SDS011;11798;51.528;7.240;2023-07-22T06:13:46;11.07;;;7.73;;
23258;SDS011;11798;51.528;7.240;2023-07-22T06:16:12;10.70;;;8.23;;
23258;SDS011;11798;51.528;7.240;2023-07-22T06:18:38;13.07;;;8.03;;
23258;SDS011;11798;51.528;7.240;2023-07-22T06:21:03;13.13;;;7.90;;
23258;SDS011;11798;51.528;7.240;2023-07-22T06:23:29;10.97;;;8.33;;
23258;SDS011;11798;51.528;7.240;2023-07-22T06:25:55;11.90;;;7.80;;
23258;SDS011;11798;51.528;7.240;2023-07-22T06:28:21;10.07;;;7.63;;
23258;SDS011;11798;51.528;7.240;2023-07-22T06:30:47;12.60;;;7.93;;
23258;SDS011;11798;51.528;7.240;2023-07-22T06:33:12;12.47;;;7.90;;
23258;SDS011;11798;51.528;7.240;2023-07-22T06:35:38;11.80;;;8.40;;
23258;SDS011;11798;51.528;7.240;2023-07-22T06:38:03;12.40;;;8.23;;
23258;SDS011;11798;51.528;7.240;2023-07-22T06:40:29;11.43;;;8.40;;
23258;SDS011;11798;51.528;7.240;2023-07-22T06:42:55;13.30;;;9.17;;
23258;SDS011;11798;51.528;7.240;2023-07-22T06:45:20;11.43;;;8.63;;
23258;SDS011;11798;51.528;7.240;2023-07-22T06:47:46;11.93;;;8.50;;
23258;SDS011;11798;51.528;7.240;2023-07-22T06:50:12;11.60;;;9.13;;
23258;SDS011;11798;51.528;7.240;2023-07-22T06:52:37;10.77;;;8.43;;
23258;SDS011;11798;51.528;7.240;2023-07-22T06:55:03;14.77;;;9.60;;
23258;SDS011;11798;51.528;7.240;2023-07-22T06:57:30;12.03;;;9.57;;
23258;SDS011;11798;51.528;7.240;2023-07-22T06:59:56;12.93;;;9.43;;
23258;SDS011;11798;51.528;7.240;2023-07-22T07:02:22;15.93;;;9.50;;
23258;SDS011;11798;51.528;7.240;2023-07-22T07:04:48;13.47;;;9.13;;
23258;SDS011;11798;51.528;7.240;2023-07-22T07:07:14;11.37;;;9.37;;
23258;SDS011;11798;51.528;7.240;2023-07-22T07:09:40;13.83;;;10.27;;
23258;SDS011;11798;51.528;7.240;2023-07-22T07:12:05;12.73;;;10.47;;
23258;SDS011;11798;51.528;7.240;2023-07-22T07:14:32;13.67;;;10.23;;
23258;SDS011;11798;51.528;7.240;2023-07-22T07:16:58;14.77;;;9.33;;
23258;SDS011;11798;51.528;7.240;2023-07-22T07:19:24;13.73;;;9.57;;
23258;SDS011;11798;51.528;7.240;2023-07-22T07:21:49;14.30;;;9.83;;
23258;SDS011;11798;51.528;7.240;2023-07-22T07:24:15;13.90;;;8.83;;
23258;SDS011;11798;51.528;7.240;2023-07-22T07:26:41;12.77;;;9.43;;
23258;SDS011;11798;51.528;7.240;2023-07-22T07:29:07;12.33;;;9.23;;
23258;SDS011;11798;51.528;7.240;2023-07-22T07:31:32;12.23;;;9.30;;
23258;SDS011;11798;51.528;7.240;2023-07-22T07:33:58;14.07;;;9.67;;
23258;SDS011;11798;51.528;7.240;2023-07-22T07:36:24;12.63;;;9.17;;
23258;SDS011;11798;51.528;7.240;2023-07-22T07:38:49;11.10;;;8.90;;
23258;SDS011;11798;51.528;7.240;2023-07-22T07:41:15;12.17;;;8.30;;
23258;SDS011;11798;51.528;7.240;2023-07-22T07:43:41;12.67;;;8.50;;
23258;SDS011;11798;51.528;7.240;2023-07-22T07:46:23;12.17;;;9.13;;
23258;SDS011;11798;51.528;7.240;2023-07-22T07:48:51;13.20;;;10.00;;
23258;SDS011;11798;51.528;7.240;2023-07-22T07:51:19;10.97;;;8.80;;
23258;SDS011;11798;51.528;7.240;2023-07-22T07:53:46;16.80;;;10.43;;
23258;SDS011;11798;51.528;7.240;2023-07-22T07:56:12;14.17;;;9.43;;
23258;SDS011;11798;51.528;7.240;2023-07-22T07:58:38;11.50;;;9.73;;
23258;SDS011;11798;51.528;7.240;2023-07-22T08:03:40;14.50;;;9.90;;
23258;SDS011;11798;51.528;7.240;2023-07-22T08:06:07;13.50;;;9.07;;
23258;SDS011;11798;51.528;7.240;2023-07-22T08:08:33;15.37;;;9.50;;
23258;SDS011;11798;51.528;7.240;2023-07-22T08:11:00;11.17;;;9.53;;
23258;SDS011;11798;51.528;7.240;2023-07-22T08:13:31;11.67;;;9.20;;
23258;SDS011;11798;51.528;7.240;2023-07-22T08:15:58;14.87;;;9.20;;
23258;SDS011;11798;51.528;7.240;2023-07-22T08:18:25;12.27;;;9.47;;
23258;SDS011;11798;51.528;7.240;2023-07-22T08:20:54;12.63;;;9.63;;
23258;SDS011;11798;51.528;7.240;2023-07-22T08:23:20;13.00;;;9.13;;
23258;SDS011;11798;51.528;7.240;2023-07-22T08:25:46;13.27;;;9.87;;
23258;SDS011;11798;51.528;7.240;2023-07-22T08:28:12;15.87;;;10.43;;
23258;SDS011;11798;51.528;7.240;2023-07-22T08:30:38;13.57;;;9.43;;
23258;SDS011;11798;51.528;7.240;2023-07-22T08:33:05;13.17;;;10.07;;
23258;SDS011;11798;51.528;7.240;2023-07-22T08:35:33;14.30;;;9.83;;
23258;SDS011;11798;51.528;7.240;2023-07-22T08:38:00;13.70;;;10.93;;
23258;SDS011;11798;51.528;7.240;2023-07-22T08:40:27;17.87;;;10.67;;
23258;SDS011;11798;51.528;7.240;2023-07-22T08:42:57;13.10;;;10.83;;
23258;SDS011;11798;51.528;7.240;2023-07-22T08:45:22;11.80;;;8.77;;
23258;SDS011;11798;51.528;7.240;2023-07-22T08:47:54;12.13;;;9.10;;
23258;SDS011;11798;51.528;7.240;2023-07-22T08:50:22;12.27;;;10.10;;
23258;SDS011;11798;51.528;7.240;2023-07-22T08:52:54;15.67;;;9.50;;
23258;SDS011;11798;51.528;7.240;2023-07-22T08:55:20;10.90;;;9.50;;
23258;SDS011;11798;51.528;7.240;2023-07-22T08:57:48;13.83;;;10.13;;
23258;SDS011;11798;51.528;7.240;2023-07-22T09:00:15;10.47;;;8.40;;
23258;SDS011;11798;51.528;7.240;2023-07-22T09:02:41;10.30;;;8.07;;
23258;SDS011;11798;51.528;7.240;2023-07-22T09:05:08;12.07;;;9.03;;
23258;SDS011;11798;51.528;7.240;2023-07-22T09:07:34;10.57;;;9.07;;
23258;SDS011;11798;51.528;7.240;2023-07-22T09:10:01;12.17;;;9.40;;
23258;SDS011;11798;51.528;7.240;2023-07-22T09:12:27;13.37;;;9.40;;
23258;SDS011;11798;51.528;7.240;2023-07-22T09:14:54;11.97;;;9.37;;
23258;SDS011;11798;51.528;7.240;2023-07-22T09:17:20;12.23;;;8.87;;
23258;SDS011;11798;51.528;7.240;2023-07-22T09:19:47;9.23;;;8.18;;
23258;SDS011;11798;51.528;7.240;2023-07-22T09:22:18;11.88;;;8.70;;
23258;SDS011;11798;51.528;7.240;2023-07-22T09:24:49;10.07;;;8.40;;
23258;SDS011;11798;51.528;7.240;2023-07-22T09:27:15;11.23;;;8.03;;
23258;SDS011;11798;51.528;7.240;2023-07-22T09:29:40;8.25;;;7.18;;
23258;SDS011;11798;51.528;7.240;2023-07-22T09:32:06;12.90;;;8.45;;
23258;SDS011;11798;51.528;7.240;2023-07-22T09:34:32;10.97;;;8.20;;
23258;SDS011;11798;51.528;7.240;2023-07-22T09:36:58;11.35;;;8.13;;
23258;SDS011;11798;51.528;7.240;2023-07-22T09:39:29;11.15;;;7.88;;
23258;SDS011;11798;51.528;7.240;2023-07-22T09:41:55;9.50;;;7.60;;
23258;SDS011;11798;51.528;7.240;2023-07-22T09:44:21;9.20;;;7.95;;
23258;SDS011;11798;51.528;7.240;2023-07-22T09:46:48;9.88;;;8.02;;
23258;SDS011;11798;51.528;7.240;2023-07-22T09:49:15;8.85;;;7.53;;
23258;SDS011;11798;51.528;7.240;2023-07-22T09:51:42;9.05;;;7.18;;
23258;SDS011;11798;51.528;7.240;2023-07-22T09:54:08;10.75;;;7.28;;
23258;SDS011;11798;51.528;7.240;2023-07-22T09:56:44;8.25;;;6.93;;
23258;SDS011;11798;51.528;7.240;2023-07-22T09:59:12;8.18;;;6.80;;
23258;SDS011;11798;51.528;7.240;2023-07-22T10:01:38;8.45;;;6.95;;
23258;SDS011;11798;51.528;7.240;2023-07-22T10:04:05;10.18;;;7.22;;
23258;SDS011;11798;51.528;7.240;2023-07-22T10:06:32;9.27;;;6.35;;
23258;SDS011;11798;51.528;7.240;2023-07-22T10:09:02;7.78;;;6.53;;
23258;SDS011;11798;51.528;7.240;2023-07-22T10:11:33;8.63;;;6.13;;
23258;SDS011;11798;51.528;7.240;2023-07-22T10:14:01;8.13;;;6.93;;
23258;SDS011;11798;51.528;7.240;2023-07-22T10:16:27;7.72;;;6.72;;
23258;SDS011;11798;51.528;7.240;2023-07-22T10:18:53;7.60;;;6.22;;
23258;SDS011;11798;51.528;7.240;2023-07-22T10:21:20;8.10;;;6.40;;
23258;SDS011;11798;51.528;7.240;2023-07-22T10:23:46;9.35;;;6.10;;
23258;SDS011;11798;51.528;7.240;2023-07-22T10:26:15;9.07;;;6.47;;
23258;SDS011;11798;51.528;7.240;2023-07-22T10:28:43;9.45;;;6.50;;
23258;SDS011;11798;51.528;7.240;2023-07-22T10:31:11;6.65;;;5.95;;
23258;SDS011;11798;51.528;7.240;2023-07-22T10:33:38;7.93;;;6.00;;
23258;SDS011;11798;51.528;7.240;2023-07-22T10:36:13;7.43;;;6.13;;
23258;SDS011;11798;51.528;7.240;2023-07-22T10:38:43;7.40;;;5.95;;
23258;SDS011;11798;51.528;7.240;2023-07-22T10:41:14;7.57;;;6.00;;
23258;SDS011;11798;51.528;7.240;2023-07-22T10:43:56;8.02;;;5.53;;
23258;SDS011;11798;51.528;7.240;2023-07-22T10:46:33;8.70;;;6.43;;
23258;SDS011;11798;51.528;7.240;2023-07-22T10:49:14;7.13;;;5.72;;
23258;SDS011;11798;51.528;7.240;2023-07-22T10:51:41;8.00;;;5.40;;
23258;SDS011;11798;51.528;7.240;2023-07-22T10:54:13;6.10;;;5.00;;
23258;SDS011;11798;51.528;7.240;2023-07-22T10:56:43;7.47;;;5.80;;
23258;SDS011;11798;51.528;7.240;2023-07-22T10:59:10;8.07;;;5.43;;
23258;SDS011;11798;51.528;7.240;2023-07-22T11:01:37;5.57;;;4.88;;
23258;SDS011;11798;51.528;7.240;2023-07-22T11:11:55;5.68;;;4.65;;
23258;SDS011;11798;51.528;7.240;2023-07-22T11:14:23;7.03;;;5.13;;
23258;SDS011;11798;51.528;7.240;2023-07-22T11:16:50;6.97;;;5.13;;
23258;SDS011;11798;51.528;7.240;2023-07-22T11:19:18;8.40;;;5.22;;
23258;SDS011;11798;51.528;7.240;2023-07-22T11:21:47;4.57;;;4.07;;
23258;SDS011;11798;51.528;7.240;2023-07-22T11:24:13;5.07;;;4.57;;
23258;SDS011;11798;51.528;7.240;2023-07-22T11:26:40;5.55;;;4.28;;
23258;SDS011;11798;51.528;7.240;2023-07-22T11:29:07;5.05;;;4.53;;
23258;SDS011;11798;51.528;7.240;2023-07-22T11:31:34;8.45;;;4.00;;
23258;SDS011;11798;51.528;7.240;2023-07-22T11:34:07;4.57;;;4.03;;
23258;SDS011;11798;51.528;7.240;2023-07-22T11:36:33;6.65;;;4.18;;
23258;SDS011;11798;51.528;7.240;2023-07-22T11:41:33;6.00;;;3.92;;
23258;SDS011;11798;51.528;7.240;2023-07-22T11:44:01;4.35;;;3.53;;
23258;SDS011;11798;51.528;7.240;2023-07-22T11:46:27;4.63;;;3.63;;
23258;SDS011;11798;51.528;7.240;2023-07-22T11:48:54;5.82;;;3.70;;
23258;SDS011;11798;51.528;7.240;2023-07-22T11:51:24;5.28;;;3.80;;
23258;SDS011;11798;51.528;7.240;2023-07-22T11:53:50;5.75;;;3.53;;
23258;SDS011;11798;51.528;7.240;2023-07-22T11:56:21;3.72;;;3.30;;
23258;SDS011;11798;51.528;7.240;2023-07-22T11:58:48;5.05;;;4.38;;
23258;SDS011;11798;51.528;7.240;2023-07-22T12:01:15;5.93;;;3.60;;
23258;SDS011;11798;51.528;7.240;2023-07-22T12:03:41;3.83;;;3.40;;
23258;SDS011;11798;51.528;7.240;2023-07-22T12:06:07;5.28;;;3.53;;
23258;SDS011;11798;51.528;7.240;2023-07-22T12:08:33;3.83;;;3.38;;
23258;SDS011;11798;51.528;7.240;2023-07-22T12:10:59;4.20;;;3.30;;
23258;SDS011;11798;51.528;7.240;2023-07-22T12:13:26;3.55;;;3.00;;
23258;SDS011;11798;51.528;7.240;2023-07-22T12:16:01;3.28;;;2.97;;
23258;SDS011;11798;51.528;7.240;2023-07-22T12:18:28;4.10;;;3.33;;
23258;SDS011;11798;51.528;7.240;2023-07-22T12:21:05;3.33;;;2.85;;
23258;SDS011;11798;51.528;7.240;2023-07-22T12:23:31;4.05;;;3.40;;
23258;SDS011;11798;51.528;7.240;2023-07-22T12:25:56;4.03;;;3.50;;
23258;SDS011;11798;51.528;7.240;2023-07-22T12:28:22;4.57;;;3.15;;
23258;SDS011;11798;51.528;7.240;2023-07-22T12:30:48;3.25;;;2.95;;
23258;SDS011;11798;51.528;7.240;2023-07-22T12:33:13;3.95;;;3.28;;
23258;SDS011;11798;51.528;7.240;2023-07-22T12:35:39;3.17;;;2.45;;
23258;SDS011;11798;51.528;7.240;2023-07-22T12:38:05;3.78;;;3.05;;
23258;SDS011;11798;51.528;7.240;2023-07-22T12:40:30;3.92;;;2.88;;
23258;SDS011;11798;51.528;7.240;2023-07-22T12:42:56;3.28;;;2.72;;
23258;SDS011;11798;51.528;7.240;2023-07-22T12:45:22;3.80;;;2.45;;
23258;SDS011;11798;51.528;7.240;2023-07-22T12:47:47;3.10;;;2.80;;
23258;SDS011;11798;51.528;7.240;2023-07-22T12:50:13;3.92;;;2.78;;
23258;SDS011;11798;51.528;7.240;2023-07-22T12:52:39;3.92;;;2.83;;
23258;SDS011;11798;51.528;7.240;2023-07-22T12:55:05;4.60;;;2.80;;
23258;SDS011;11798;51.528;7.240;2023-07-22T12:57:30;4.13;;;2.60;;
23258;SDS011;11798;51.528;7.240;2023-07-22T12:59:56;3.00;;;2.70;;
23258;SDS011;11798;51.528;7.240;2023-07-22T13:02:22;4.65;;;2.65;;
23258;SDS011;11798;51.528;7.240;2023-07-22T13:04:48;2.97;;;2.50;;
23258;SDS011;11798;51.528;7.240;2023-07-22T13:07:13;4.93;;;2.70;;
23258;SDS011;11798;51.528;7.240;2023-07-22T13:09:39;3.28;;;2.47;;
23258;SDS011;11798;51.528;7.240;2023-07-22T13:12:07;4.70;;;2.63;;
23258;SDS011;11798;51.528;7.240;2023-07-22T13:14:33;3.15;;;2.50;;
23258;SDS011;11798;51.528;7.240;2023-07-22T13:16:58;4.97;;;2.60;;
23258;SDS011;11798;51.528;7.240;2023-07-22T13:19:24;4.15;;;3.00;;
23258;SDS011;11798;51.528;7.240;2023-07-22T13:21:49;5.13;;;2.97;;
23258;SDS011;11798;51.528;7.240;2023-07-22T13:24:15;5.32;;;3.38;;
23258;SDS011;11798;51.528;7.240;2023-07-22T13:26:40;5.57;;;2.88;;
23258;SDS011;11798;51.528;7.240;2023-07-22T13:29:06;3.38;;;3.08;;
23258;SDS011;11798;51.528;7.240;2023-07-22T13:31:33;5.30;;;3.15;;
23258;SDS011;11798;51.528;7.240;2023-07-22T13:33:59;4.55;;;3.47;;
23258;SDS011;11798;51.528;7.240;2023-07-22T13:36:25;4.00;;;3.40;;
23258;SDS011;11798;51.528;7.240;2023-07-22T13:38:50;4.38;;;3.17;;
23258;SDS011;11798;51.528;7.240;2023-07-22T13:41:16;4.68;;;3.50;;
23258;SDS011;11798;51.528;7.240;2023-07-22T13:43:41;6.35;;;3.70;;
23258;SDS011;11798;51.528;7.240;2023-07-22T13:46:07;4.25;;;3.53;;
23258;SDS011;11798;51.528;7.240;2023-07-22T13:48:33;4.47;;;3.40;;
23258;SDS011;11798;51.528;7.240;2023-07-22T13:50:59;4.70;;;3.90;;
23258;SDS011;11798;51.528;7.240;2023-07-22T13:53:24;4.78;;;3.80;;
23258;SDS011;11798;51.528;7.240;2023-07-22T13:55:50;4.65;;;3.88;;
23258;SDS011;11798;51.528;7.240;2023-07-22T13:58:16;4.80;;;4.00;;
23258;SDS011;11798;51.528;7.240;2023-07-22T14:00:41;4.90;;;3.45;;
23258;SDS011;11798;51.528;7.240;2023-07-22T14:03:07;4.43;;;3.92;;
23258;SDS011;11798;51.528;7.240;2023-07-22T14:05:32;4.85;;;3.15;;
23258;SDS011;11798;51.528;7.240;2023-07-22T14:07:58;4.10;;;3.70;;
23258;SDS011;11798;51.528;7.240;2023-07-22T14:10:25;4.80;;;3.75;;
23258;SDS011;11798;51.528;7.240;2023-07-22T14:12:50;4.82;;;3.50;;
23258;SDS011;11798;51.528;7.240;2023-07-22T14:15:16;3.88;;;3.45;;
23258;SDS011;11798;51.528;7.240;2023-07-22T14:17:41;3.60;;;3.28;;
23258;SDS011;11798;51.528;7.240;2023-07-22T14:20:07;6.80;;;3.75;;
23258;SDS011;11798;51.528;7.240;2023-07-22T14:22:33;3.20;;;2.90;;
23258;SDS011;11798;51.528;7.240;2023-07-22T14:24:59;5.28;;;3.60;;
23258;SDS011;11798;51.528;7.240;2023-07-22T14:27:24;4.35;;;3.67;;
23258;SDS011;11798;51.528;7.240;2023-07-22T14:29:50;5.00;;;3.55;;
23258;SDS011;11798;51.528;7.240;2023-07-22T14:32:15;6.18;;;3.63;;
23258;SDS011;11798;51.528;7.240;2023-07-22T14:34:41;5.18;;;3.45;;
23258;SDS011;11798;51.528;7.240;2023-07-22T14:37:07;4.43;;;3.30;;
23258;SDS011;11798;51.528;7.240;2023-07-22T14:39:32;4.20;;;3.40;;
23258;SDS011;11798;51.528;7.240;2023-07-22T14:41:58;6.32;;;3.40;;
23258;SDS011;11798;51.528;7.240;2023-07-22T14:44:24;3.17;;;2.88;;